地図

経路データ

SID SEASON NUMBER BASIN SUBBASIN NAME ISO_TIME NATURE LAT LON WMO_WIND WMO_PRES WMO_AGENCY TRACK_TYPE DIST2LAND LANDFALL IFLAG USA_AGENCY USA_ATCF_ID USA_LAT USA_LON USA_RECORD USA_STATUS USA_WIND USA_PRES USA_SSHS USA_R34_NE USA_R34_SE USA_R34_SW USA_R34_NW USA_R50_NE USA_R50_SE USA_R50_SW USA_R50_NW USA_R64_NE USA_R64_SE USA_R64_SW USA_R64_NW USA_POCI USA_ROCI USA_RMW USA_EYE TOKYO_LAT TOKYO_LON TOKYO_GRADE TOKYO_WIND TOKYO_PRES TOKYO_R50_DIR TOKYO_R50_LONG TOKYO_R50_SHORT TOKYO_R30_DIR TOKYO_R30_LONG TOKYO_R30_SHORT TOKYO_LAND CMA_LAT CMA_LON CMA_CAT CMA_WIND CMA_PRES HKO_LAT HKO_LON HKO_CAT HKO_WIND HKO_PRES NEWDELHI_LAT NEWDELHI_LON NEWDELHI_GRADE NEWDELHI_WIND NEWDELHI_PRES NEWDELHI_CI NEWDELHI_DP NEWDELHI_POCI REUNION_LAT REUNION_LON REUNION_TYPE REUNION_WIND REUNION_PRES REUNION_TNUM REUNION_CI REUNION_RMW REUNION_R34_NE REUNION_R34_SE REUNION_R34_SW REUNION_R34_NW REUNION_R50_NE REUNION_R50_SE REUNION_R50_SW REUNION_R50_NW REUNION_R64_NE REUNION_R64_SE REUNION_R64_SW REUNION_R64_NW BOM_LAT BOM_LON BOM_TYPE BOM_WIND BOM_PRES BOM_TNUM BOM_CI BOM_RMW BOM_R34_NE BOM_R34_SE BOM_R34_SW BOM_R34_NW BOM_R50_NE BOM_R50_SE BOM_R50_SW BOM_R50_NW BOM_R64_NE BOM_R64_SE BOM_R64_SW BOM_R64_NW BOM_ROCI BOM_POCI BOM_EYE BOM_POS_METHOD BOM_PRES_METHOD NADI_LAT NADI_LON NADI_CAT NADI_WIND NADI_PRES WELLINGTON_LAT WELLINGTON_LON WELLINGTON_WIND WELLINGTON_PRES DS824_LAT DS824_LON DS824_STAGE DS824_WIND DS824_PRES TD9636_LAT TD9636_LON TD9636_STAGE TD9636_WIND TD9636_PRES TD9635_LAT TD9635_LON TD9635_WIND TD9635_PRES TD9635_ROCI NEUMANN_LAT NEUMANN_LON NEUMANN_CLASS NEUMANN_WIND NEUMANN_PRES MLC_LAT MLC_LON MLC_CLASS MLC_WIND MLC_PRES USA_GUST BOM_GUST BOM_GUST_PER REUNION_GUST REUNION_GUST_PER USA_SEAHGT USA_SEARAD_NE USA_SEARAD_SE USA_SEARAD_SW USA_SEARAD_NW STORM_SPEED STORM_DIR
1920353S10147 1921 56 SP EA NOT_NAMED 1920-12-17 12:00:00 NR -10.3000 147.200 main 59 59 __________O___ -1 -10.3000 147.200 7 5 277
1920353S10147 1921 56 SP EA NOT_NAMED 1920-12-17 15:00:00 NR -10.2689 146.925 main 86 86 __________P___ -1 -10.2689 146.925 7 6 276
1920353S10147 1921 56 SP EA NOT_NAMED 1920-12-17 18:00:00 NR -10.2401 146.640 main 95 95 __________P___ -1 -10.2401 146.640 7 6 275
1920353S10147 1921 56 SP EA NOT_NAMED 1920-12-17 21:00:00 NR -10.2163 146.335 main 117 117 __________P___ -1 -10.2163 146.335 7 6 274
1920353S10147 1921 56 SP EA NOT_NAMED 1920-12-18 00:00:00 NR -10.2000 146.000 main 141 141 __________O___ -1 -10.2000 146.000 7 7 272
1920353S10147 1921 56 SP EA NOT_NAMED 1920-12-18 03:00:00 NR -10.1927 145.627 main 173 173 __________P___ -1 -10.1927 145.627 7 8 271
1920353S10147 1921 56 SP EA NOT_NAMED 1920-12-18 06:00:00 NR -10.1923 145.217 main 203 203 __________P___ -1 -10.1923 145.217 7 8 270
1920353S10147 1921 56 SP EA NOT_NAMED 1920-12-18 09:00:00 NR -10.1957 144.774 main 204 166 __________P___ -1 -10.1957 144.774 7 9 270
1920353S10147 1921 56 SP EA NOT_NAMED 1920-12-18 12:00:00 NR -10.2000 144.300 main 166 141 __________O___ -1 -10.2000 144.300 7 10 270
1920353S10147 1921 56 SP EA NOT_NAMED 1920-12-18 15:00:00 NR -10.1962 143.771 main 141 110 __________P___ -1 -10.1962 143.771 7 11 270
1920353S10147 1921 56 SP EA NOT_NAMED 1920-12-18 18:00:00 NR -10.1929 143.220 main 101 70 __________P___ -1 -10.1929 143.220 7 11 270
1920353S10147 1921 56 SP EA NOT_NAMED 1920-12-18 21:00:00 NR -10.1931 142.684 main 70 67 __________P___ -1 -10.1931 142.684 7 10 270
1920353S10147 1921 56 SP EA NOT_NAMED 1920-12-19 00:00:00 NR -10.2000 142.200 main 70 70 __________O___ -1 -10.2000 142.200 7 9 269
1920353S10147 1921 56 SP EA NOT_NAMED 1920-12-19 03:00:00 NR -10.2133 141.818 main 93 93 __________P___ -1 -10.2133 141.818 7 7 267
1920353S10147 1921 56 SP EA NOT_NAMED 1920-12-19 06:00:00 NR -10.2344 141.490 main 111 111 __________P___ -1 -10.2344 141.490 7 6 265
1920353S10147 1921 56 SP EA NOT_NAMED 1920-12-19 09:00:00 NR -10.2634 141.193 main 123 123 __________P___ -1 -10.2634 141.193 7 6 264
1920353S10147 1921 56 SP EA NOT_NAMED 1920-12-19 12:00:00 NR -10.3000 140.900 main 125 125 __________O___ -1 -10.3000 140.900 7 6 263
1920353S10147 1921 56 SP EA NOT_NAMED 1920-12-19 15:00:00 NR -10.3427 140.575 main 134 134 __________P___ -1 -10.3427 140.575 7 6 262
1920353S10147 1921 56 SP EA NOT_NAMED 1920-12-19 18:00:00 NR -10.3924 140.250 main 160 160 __________P___ -1 -10.3924 140.250 7 6 261
1920353S10147 1921 56 SP EA NOT_NAMED 1920-12-19 21:00:00 NR -10.4458 139.925 main 188 188 __________P___ -1 -10.4458 139.925 7 6 260
1920353S10147 1921 56 SP EA NOT_NAMED 1920-12-20 00:00:00 NR -10.5000 139.600 main 219 219 __________O___ -1 -10.5000 139.600 7 6 261
1920353S10147 1921 56 SP EA NOT_NAMED 1920-12-20 03:00:00 NR -10.5498 139.283 main 237 237 __________P___ -1 -10.5498 139.283 7 6 261
1920353S10147 1921 56 SP EA NOT_NAMED 1920-12-20 06:00:00 NR -10.5998 138.965 main 252 247 __________P___ -1 -10.5998 138.965 7 6 261
1920353S10147 1921 56 SP EA NOT_NAMED 1920-12-20 09:00:00 NR -10.6498 138.639 main 246 228 __________P___ -1 -10.6498 138.639 7 7 261
1920353S10147 1921 56 SP EA NOT_NAMED 1920-12-20 12:00:00 NR -10.7000 138.300 main 228 200 __________O___ -1 -10.7000 138.300 7 7 261
1920353S10147 1921 56 SP EA NOT_NAMED 1920-12-20 15:00:00 NR -10.7581 137.939 main 194 180 __________P___ -1 -10.7581 137.939 7 7 261
1920353S10147 1921 56 SP EA NOT_NAMED 1920-12-20 18:00:00 NR -10.8149 137.565 main 180 144 __________P___ -1 -10.8149 137.565 7 8 262
1920353S10147 1921 56 SP EA NOT_NAMED 1920-12-20 21:00:00 NR -10.8643 137.183 main 144 127 __________P___ -1 -10.8643 137.183 7 8 264
1920353S10147 1921 56 SP EA NOT_NAMED 1920-12-21 00:00:00 NR -10.9000 136.800 main 127 123 __________O___ -1 -10.9000 136.800 7 7 266
1920353S10147 1921 56 SP EA NOT_NAMED 1920-12-21 03:00:00 NR -10.9101 136.437 main 123 123 __________P___ -1 -10.9101 136.437 7 7 269
1920353S10147 1921 56 SP EA NOT_NAMED 1920-12-21 06:00:00 NR -10.9071 136.072 main 130 130 __________P___ -1 -10.9071 136.072 7 7 271
1920353S10147 1921 56 SP EA NOT_NAMED 1920-12-21 09:00:00 NR -10.9007 135.696 main 134 134 __________P___ -1 -10.9007 135.696 7 8 271
1920353S10147 1921 56 SP EA NOT_NAMED 1920-12-21 12:00:00 NR -10.9000 135.300 main 138 136 __________O___ -1 -10.9000 135.300 7 7 272
1920353S10147 1921 56 SI WA NOT_NAMED 1920-12-21 15:00:00 NR -10.8762 134.940 main 134 130 __________P___ -1 -10.8762 134.940 7 7 273
1920353S10147 1921 56 SI WA NOT_NAMED 1920-12-21 18:00:00 NR -10.8659 134.548 main 126 105 __________P___ -1 -10.8659 134.548 7 8 269
1920353S10147 1921 56 SI WA NOT_NAMED 1920-12-21 21:00:00 NR -10.8977 134.083 main 105 78 __________P___ -1 -10.8977 134.083 7 10 263
1920353S10147 1921 56 SI WA NOT_NAMED 1920-12-22 00:00:00 NR -11.0000 133.500 main 78 22 __________O___ -1 -11.0000 133.500 7 14 257
1920353S10147 1921 56 SI WA NOT_NAMED 1920-12-22 03:00:00 NR -11.2001 132.728 main 24 0 __________P___ -1 -11.2001 132.728 7 17 254
1920353S10147 1921 56 SI WA NOT_NAMED 1920-12-22 06:00:00 NR -11.4690 131.841 main 24 0 __________P___ -1 -11.4690 131.841 7 19 252
1920353S10147 1921 56 SI WA NOT_NAMED 1920-12-22 09:00:00 NR -11.7782 130.908 main 0 0 __________P___ -1 -11.7782 130.908 7 19 251
1920353S10147 1921 56 SI WA NOT_NAMED 1920-12-22 12:00:00 NR -12.1000 130.000 main 35 35 __________O___ -1 -12.1000 130.000 7 18 250
1920353S10147 1921 56 SI WA NOT_NAMED 1920-12-22 15:00:00 NR -12.4004 129.182 main 118 118 __________P___ -1 -12.4004 129.182 7 17 249
1920353S10147 1921 56 SI WA NOT_NAMED 1920-12-22 18:00:00 NR -12.7069 128.403 main 176 110 __________P___ -1 -12.7069 128.403 7 16 248
1920353S10147 1921 56 SI WA NOT_NAMED 1920-12-22 21:00:00 NR -13.0100 127.672 main 110 55 __________P___ -1 -13.0100 127.672 7 15 247
1920353S10147 1921 56 SI WA NOT_NAMED 1920-12-23 00:00:00 NR -13.3000 127.000 main 55 44 __________O___ -1 -13.3000 127.000 7 14 247
1920353S10147 1921 56 SI WA NOT_NAMED 1920-12-23 03:00:00 NR -13.5432 126.379 main 55 31 __________P___ -1 -13.5432 126.379 7 12 248
1920353S10147 1921 56 SI WA NOT_NAMED 1920-12-23 06:00:00 NR -13.7764 125.816 main 39 39 __________P___ -1 -13.7764 125.816 7 12 246
1920353S10147 1921 56 SI WA NOT_NAMED 1920-12-23 09:00:00 NR -14.0215 125.295 main 46 46 __________P___ -1 -14.0215 125.295 7 11 242
1920353S10147 1921 56 SI WA NOT_NAMED 1920-12-23 12:00:00 NR -14.3000 124.800 main 54 54 __________O___ -1 -14.3000 124.800 7 12 243
1920353S10147 1921 56 SI WA NOT_NAMED 1920-12-23 15:00:00 NR -14.5420 124.226 main 101 93 __________P___ -1 -14.5420 124.226 7 12 244
1920353S10147 1921 56 SI WA NOT_NAMED 1920-12-23 18:00:00 NR -14.8333 123.686 main 116 108 __________P___ -1 -14.8333 123.686 7 12 234
1920353S10147 1921 56 SI WA NOT_NAMED 1920-12-23 21:00:00 NR -15.2328 123.227 main 124 78 __________P___ -1 -15.2328 123.227 7 12 218
1920353S10147 1921 56 SI WA NOT_NAMED 1920-12-24 00:00:00 NR -15.8000 122.900 main 78 10 __________O___ -1 -15.8000 122.900 7 15 200
1920353S10147 1921 56 SI WA NOT_NAMED 1920-12-24 03:00:00 NR -16.6260 122.696 main 10 0 __________P___ -1 -16.6260 122.696 7 18 188
1920353S10147 1921 56 SI WA NOT_NAMED 1920-12-24 06:00:00 NR -17.6140 122.632 main 0 0 __________P___ -1 -17.6140 122.632 7 21 180
1920353S10147 1921 56 SI WA NOT_NAMED 1920-12-24 09:00:00 NR -18.6700 122.702 main 0 0 __________P___ -1 -18.6700 122.702 7 21 173
1920353S10147 1921 56 SI WA NOT_NAMED 1920-12-24 12:00:00 NR -19.7000 122.900 main 0 0 __________O___ -1 -19.7000 122.900 7 20 166
1920353S10147 1921 56 SI WA NOT_NAMED 1920-12-24 15:00:00 NR -20.6307 123.215 main 0 0 __________P___ -1 -20.6307 123.215 7 19 159
1920353S10147 1921 56 SI WA NOT_NAMED 1920-12-24 18:00:00 NR -21.4713 123.622 main 0 0 __________P___ -1 -21.4713 123.622 7 18 153
1920353S10147 1921 56 SI WA NOT_NAMED 1920-12-24 21:00:00 NR -22.2513 124.094 main 0 0 __________P___ -1 -22.2513 124.094 7 18 149
1920353S10147 1921 56 SI WA NOT_NAMED 1920-12-25 00:00:00 NR -23.0000 124.600 main 0 __________O___ -1 -23.0000 124.600 7 18 148

デジタル台風データ・検索

IBTrACS Databaseについて

本データベースは、米国NOAAが公開する1842年以降の世界の熱帯低気圧のベストトラックデータアーカイブInternational Best Track Archive for Climate Stewardship (IBTrACS)を、ウェブで閲覧しやすい形式に変換したものです。

最終更新日:2021-10-27